Details From EDDS - Stuttgart
To ETSN - NEUBURG
Flight Number -
Tags generated
Created
Modified
Stats Distance 79 nm / 146 km
Max Altitude 9,700 ft / 2,957 m
Waypoints 3
Social Downloads 0
Likes 0
Share VATSIM

Download

Looking for another format? Having issues loading an existing format? Contact us
Advertisement - Login to hide

Notes

Basic altitude profile: - Ascent Rate: 2500ft/min - Ascent Speed: 250kts - Cruise Altitude: 10000ft - Cruise Speed: 250kts - Descent Rate: 1500ft/min - Descent Speed: 250kts Options: - Use NATs: no - Use PACOTS: no - Use low airways: yes - Use high airways: no

Route

EDDS TEKSI ETSN

ID Type Via Altitude Latitude Longitude Leg Dist Tot Dist Heading (true) Name
O EDDS APT - 0 ft / 0 m 48.68988˚ 9.22196˚ - 0 nm - Stuttgart
TEKSI FIX - 9,700 ft / 2,957 m 48.69055˚ 10.06809˚ 33 nm 33 nm 90° / 90° -
O ETSN APT - 0 ft / 0 m 48.71100˚ 11.21158˚ 45 nm 78 nm 88° / 89° NEUBURG

Altitude Profile

Advertisement - Login to hide

EDDS

Details ICAO EDDS (STR)
Name Stuttgart
Region Germany - Civil
Timezone Europe/Berlin (UTC+1.0)
Stats Elevation 1,273 ft / 388 m (AMSL)
Location 48.689876° 9.221962°
Runways 1
Magnetic Variation 2.523° E

METAR

EDDS 140750Z 24013KT 210V270 9999 FEW016 03/M01 Q1001 NOSIG

Decode

TAF

TAF TAF EDDS 140500Z 1406/1506 24015G25KT 9999 SCT025 PROB30 TEMPO 1411/1418 25020G35KT SHRA BKN025CB BECMG 1416/1418 20010KT TEMPO 1418/1502 24015G25KT SHRA BKN025TCU PROB30 TEMPO 1418/1502 25020G35KT 4000 TSRA BKN012 BKN020CB

Decode

Departure Runways

ID Width Length Bearing (true) Bearing (mag) Surface Threshold Offset Overrun Length
07 148 ft / 45 m 10,950 ft / 3,337 m 73.96° 71.44° Concrete 981 ft / 299 m 157 ft / 48 m
25 148 ft / 45 m 10,950 ft / 3,337 m 253.99° 251.47° Concrete 0 ft / 0 m 157 ft / 48 m

ETSN

Details ICAO ETSN
Name NEUBURG
Region Germany - Military
Timezone Europe/Berlin (UTC+1.0)
Stats Elevation 1,249 ft / 381 m (AMSL)
Location 48.711000° 11.211583°
Runways 1
Magnetic Variation 3.031° E

METAR

ETSN 140720Z 26013KT 9999 FEW035 SCT090 04/00 Q0999 BLU+BLU TEMPO GRN

Decode

TAF

Not found

Destination Runways

ID Width Length Bearing (true) Bearing (mag) Surface Threshold Offset Overrun Length
09 98 ft / 30 m 7,987 ft / 2,435 m 90.86° 87.83° Asphalt 0 ft / 0 m 902 ft / 275 m
27 98 ft / 30 m 7,987 ft / 2,435 m 270.89° 267.86° Asphalt 0 ft / 0 m 951 ft / 290 m